Time;durP1;ratioP1;P1;durP2;ratioP2;P2;SDS_P1;SDS_P2;PMS_P1;PMS_P2;Temp;Humidity;BMP_temperature;BMP_pressure;BME280_temperature;BME280_humidity;BME280_pressure;Samples;Min_cycle;Max_cycle;Signal;HPM_P1;HPM_P2
2023/12/11 00:01:19;;;;;;;21.52;5.07;;;9.50;99.90;;;;;;6274663;22;20011;-67
2023/12/11 00:03:45;;;;;;;31.98;5.07;;;9.40;99.90;;;;;;6302071;22;20088;-68
2023/12/11 00:06:11;;;;;;;35.88;5.40;;;9.40;99.90;;;;;;6302106;22;20756;-67
2023/12/11 00:08:37;;;;;;;36.92;5.47;;;9.40;99.90;;;;;;6302024;22;20107;-67
2023/12/11 00:11:02;;;;;;;39.85;5.38;;;9.40;99.90;;;;;;6302770;22;20103;-67
2023/12/11 00:13:28;;;;;;;44.63;5.65;;;9.40;99.90;;;;;;6276001;22;20058;-67
2023/12/11 00:15:54;;;;;;;35.97;5.78;;;9.30;99.90;;;;;;6302399;22;20026;-67
2023/12/11 00:18:20;;;;;;;27.20;4.55;;;9.30;99.90;;;;;;6303650;22;20022;-67
2023/12/11 00:20:45;;;;;;;40.22;5.93;;;9.30;99.90;;;;;;6303634;22;20647;-67
2023/12/11 00:23:11;;;;;;;29.25;5.38;;;9.30;99.90;;;;;;6304054;22;20030;-67
2023/12/11 00:25:37;;;;;;;31.55;5.90;;;9.30;99.90;;;;;;6276040;22;20091;-67
2023/12/11 00:28:03;;;;;;;43.63;6.20;;;9.30;99.90;;;;;;6303094;22;20019;-67
2023/12/11 00:30:29;;;;;;;37.55;6.18;;;9.30;99.90;;;;;;6303652;22;20019;-67
2023/12/11 00:32:55;;;;;;;38.97;6.45;;;9.30;99.90;;;;;;6303623;22;20088;-67
2023/12/11 00:35:20;;;;;;;46.15;5.40;;;9.30;99.90;;;;;;6303612;22;20019;-67
2023/12/11 00:37:46;;;;;;;42.78;6.13;;;9.30;99.90;;;;;;6303702;22;20500;-67
2023/12/11 00:40:12;;;;;;;31.58;5.47;;;9.30;99.90;;;;;;6303794;22;20026;-67
2023/12/11 00:42:38;;;;;;;25.50;5.00;;;9.30;99.90;;;;;;6303131;22;20023;-67
2023/12/11 00:45:04;;;;;;;34.05;5.15;;;9.30;99.90;;;;;;6303626;22;20023;-67
2023/12/11 00:47:29;;;;;;;46.72;6.40;;;9.30;99.90;;;;;;6304054;22;20094;-67
2023/12/11 00:49:55;;;;;;;42.45;5.65;;;9.30;99.90;;;;;;6303514;22;20124;-67
2023/12/11 00:52:21;;;;;;;30.50;5.05;;;9.30;99.90;;;;;;6276084;22;20023;-67
2023/12/11 00:54:46;;;;;;;34.75;5.38;;;9.20;99.90;;;;;;6303897;22;20019;-67
2023/12/11 00:57:12;;;;;;;32.70;5.32;;;9.30;99.90;;;;;;6303154;22;20094;-67
2023/12/11 00:59:41;;;;;;;32.65;4.95;;;9.30;99.90;;;;;;6276417;22;20015;-67
2023/12/11 01:02:07;;;;;;;46.30;7.40;;;9.30;99.90;;;;;;6303506;22;20015;-67
2023/12/11 01:04:32;;;;;;;32.45;4.60;;;9.20;99.90;;;;;;6304468;22;20021;-67
2023/12/11 01:06:58;;;;;;;32.25;5.38;;;9.20;99.90;;;;;;6276710;22;20345;-67
2023/12/11 01:09:24;;;;;;;31.48;6.05;;;9.20;99.90;;;;;;6303884;22;20030;-67
2023/12/11 01:11:49;;;;;;;28.13;5.20;;;9.20;99.90;;;;;;6275595;22;20023;-67
2023/12/11 01:14:15;;;;;;;28.55;4.72;;;9.20;99.90;;;;;;6303674;22;20107;-67
2023/12/11 01:16:41;;;;;;;20.58;5.20;;;9.20;99.90;;;;;;6275771;22;20033;-67
2023/12/11 01:19:07;;;;;;;31.83;5.07;;;9.10;99.90;;;;;;6303460;22;20019;-67
2023/12/11 01:21:33;;;;;;;29.45;4.53;;;9.10;99.90;;;;;;6303294;22;20042;-67
2023/12/11 01:23:59;;;;;;;44.45;6.53;;;9.10;99.90;;;;;;6303204;22;20312;-67
2023/12/11 01:26:24;;;;;;;30.52;5.05;;;9.10;99.90;;;;;;6275615;22;20094;-67
2023/12/11 01:28:50;;;;;;;22.77;4.45;;;9.10;99.90;;;;;;6302727;22;20015;-67
2023/12/11 01:31:16;;;;;;;30.67;4.75;;;9.10;99.90;;;;;;6303376;22;20027;-67
2023/12/11 01:33:41;;;;;;;26.50;4.78;;;9.10;99.90;;;;;;6275915;22;20038;-67
2023/12/11 01:36:08;;;;;;;34.40;4.90;;;9.10;99.90;;;;;;6303423;22;20015;-66
2023/12/11 01:38:34;;;;;;;32.33;5.10;;;9.10;99.90;;;;;;6303182;22;20011;-66
2023/12/11 01:40:59;;;;;;;29.42;6.00;;;9.20;99.90;;;;;;6302525;22;20524;-67
2023/12/11 01:43:25;;;;;;;32.05;5.47;;;9.20;99.90;;;;;;6303055;22;20019;-67
2023/12/11 01:46:11;;;;;;;35.22;6.60;;;9.20;99.90;;;;;;6275705;22;20084;-67
2023/12/11 01:48:37;;;;;;;30.23;4.68;;;9.20;99.90;;;;;;6303065;22;20023;-67
2023/12/11 01:51:04;;;;;;;27.52;5.55;;;9.20;99.90;;;;;;6302729;22;20088;-66
2023/12/11 01:53:30;;;;;;;32.85;5.68;;;9.20;99.90;;;;;;6275866;22;20025;-67
2023/12/11 01:55:57;;;;;;;37.90;6.25;;;9.20;99.90;;;;;;6303053;22;20364;-67
2023/12/11 01:58:24;;;;;;;36.97;5.20;;;9.20;99.90;;;;;;6302616;22;20058;-67
2023/12/11 02:00:50;;;;;;;31.05;5.57;;;9.20;99.90;;;;;;6303142;22;20019;-66
2023/12/11 02:03:16;;;;;;;28.75;4.90;;;9.20;99.90;;;;;;6303002;22;20022;-67
2023/12/11 02:05:45;;;;;;;37.80;6.18;;;9.20;99.90;;;;;;6275341;22;20419;-67
2023/12/11 02:08:11;;;;;;;38.05;6.68;;;9.20;99.90;;;;;;6303127;22;20035;-67
2023/12/11 02:10:37;;;;;;;52.90;7.30;;;9.20;99.90;;;;;;6302885;22;20050;-66
2023/12/11 02:13:03;;;;;;;37.47;6.00;;;9.30;99.90;;;;;;6302964;22;20157;-67
2023/12/11 02:15:38;;;;;;;37.38;5.85;;;9.20;99.90;;;;;;6303428;22;20018;-66
2023/12/11 02:18:04;;;;;;;40.42;5.75;;;9.20;99.90;;;;;;6303405;22;20011;-66
2023/12/11 02:20:30;;;;;;;37.15;6.47;;;9.20;99.90;;;;;;6303047;22;20026;-66
2023/12/11 02:23:00;;;;;;;41.08;6.10;;;9.20;99.90;;;;;;6302858;22;20019;-66
2023/12/11 02:25:30;;;;;;;39.30;6.78;;;9.30;99.90;;;;;;6302420;22;20019;-66
2023/12/11 02:27:56;;;;;;;42.15;8.77;;;9.30;99.90;;;;;;6302321;22;20026;-66
2023/12/11 02:30:22;;;;;;;45.50;7.05;;;9.30;99.90;;;;;;6302545;22;20473;-66
2023/12/11 02:32:51;;;;;;;50.30;7.40;;;9.20;99.90;;;;;;6302450;22;20011;-67
2023/12/11 02:35:17;;;;;;;37.00;5.80;;;9.30;99.90;;;;;;6302733;22;20030;-67
2023/12/11 02:37:43;;;;;;;36.20;6.07;;;9.30;99.90;;;;;;6302895;22;20015;-67
2023/12/11 02:40:09;;;;;;;39.70;6.30;;;9.30;99.90;;;;;;6302781;22;20007;-67
2023/12/11 02:42:35;;;;;;;37.33;6.60;;;9.30;99.90;;;;;;6302434;22;20026;-67
2023/12/11 02:45:00;;;;;;;42.88;6.45;;;9.30;99.90;;;;;;6302775;22;20045;-67
2023/12/11 02:47:26;;;;;;;37.78;6.65;;;9.30;99.90;;;;;;6274931;22;20347;-67
2023/12/11 02:49:52;;;;;;;37.90;7.03;;;9.30;99.90;;;;;;6302730;22;20446;-66
2023/12/11 02:52:17;;;;;;;38.65;6.28;;;9.40;99.90;;;;;;6302687;22;20025;-67
2023/12/11 02:54:43;;;;;;;45.92;7.97;;;9.40;99.90;;;;;;6302233;22;20092;-66
2023/12/11 02:57:10;;;;;;;46.90;7.13;;;9.40;99.90;;;;;;6302260;22;20022;-67
2023/12/11 02:59:36;;;;;;;44.88;6.50;;;9.40;99.90;;;;;;6302655;22;20395;-66
2023/12/11 03:02:02;;;;;;;40.50;7.88;;;9.40;99.90;;;;;;6302458;22;20023;-66
2023/12/11 03:04:27;;;;;;;36.22;6.63;;;9.40;99.90;;;;;;6302666;22;20019;-66
2023/12/11 03:06:53;;;;;;;33.47;5.85;;;9.40;99.90;;;;;;6302304;22;20076;-67
2023/12/11 03:09:19;;;;;;;47.53;6.50;;;9.50;99.90;;;;;;6302244;22;20093;-67
2023/12/11 03:11:44;;;;;;;50.50;6.43;;;9.50;99.90;;;;;;6302097;22;20019;-67
2023/12/11 03:14:10;;;;;;;52.13;6.78;;;9.50;99.90;;;;;;6302444;22;20011;-67
2023/12/11 03:16:36;;;;;;;44.10;6.97;;;9.50;99.90;;;;;;6302313;22;20873;-66
2023/12/11 03:19:01;;;;;;;45.13;6.43;;;9.50;99.90;;;;;;6302526;22;20678;-67
2023/12/11 03:21:27;;;;;;;45.78;6.60;;;9.50;99.90;;;;;;6302245;22;20015;-66
2023/12/11 03:23:53;;;;;;;42.28;6.93;;;9.50;99.90;;;;;;6302552;22;20024;-66
2023/12/11 03:26:18;;;;;;;42.28;6.57;;;9.50;99.90;;;;;;6302671;22;20019;-66
2023/12/11 03:28:44;;;;;;;37.47;5.55;;;9.50;99.90;;;;;;6302319;22;20055;-67
2023/12/11 03:31:10;;;;;;;45.88;6.78;;;9.50;99.90;;;;;;6301997;22;20022;-67
2023/12/11 03:33:35;;;;;;;43.03;6.78;;;9.50;99.90;;;;;;6301951;22;20019;-67
2023/12/11 03:36:01;;;;;;;44.17;6.63;;;9.50;99.90;;;;;;6302256;22;20023;-67
2023/12/11 03:38:27;;;;;;;36.08;6.72;;;9.40;99.90;;;;;;6302675;22;20020;-67
2023/12/11 03:40:53;;;;;;;37.63;5.78;;;9.50;99.90;;;;;;6302359;22;20023;-67
2023/12/11 03:43:18;;;;;;;39.22;6.00;;;9.40;99.90;;;;;;6302343;22;20043;-68
2023/12/11 03:45:46;;;;;;;40.17;6.20;;;9.40;99.90;;;;;;6303963;22;20530;-68
2023/12/11 03:48:11;;;;;;;32.28;6.47;;;9.40;99.90;;;;;;6304481;22;20636;-69
2023/12/11 03:50:37;;;;;;;33.53;6.40;;;9.40;99.90;;;;;;6304315;22;20073;-69
2023/12/11 03:53:03;;;;;;;41.03;5.68;;;9.40;99.90;;;;;;6304542;22;20019;-70
2023/12/11 03:55:28;;;;;;;46.42;6.43;;;9.40;99.90;;;;;;6305249;22;20343;-74
2023/12/11 03:57:54;;;;;;;38.63;6.00;;;9.40;99.90;;;;;;6304702;22;20347;-79
2023/12/11 04:00:21;;;;;;;35.10;5.50;;;9.40;99.90;;;;;;6277550;22;20015;-78
2023/12/11 04:02:46;;;;;;;38.28;5.70;;;9.40;99.90;;;;;;6277477;22;20049;-81
2023/12/11 04:05:12;;;;;;;32.13;5.75;;;9.40;99.90;;;;;;6277153;22;20024;-78
2023/12/11 04:07:38;;;;;;;41.65;6.90;;;9.30;99.90;;;;;;6304768;22;20023;-78
2023/12/11 04:10:04;;;;;;;33.50;4.90;;;9.40;99.90;;;;;;6304758;22;20053;-76
2023/12/11 04:12:29;;;;;;;30.80;4.82;;;9.40;99.90;;;;;;6304837;22;20447;-75
2023/12/11 04:14:55;;;;;;;25.85;5.80;;;9.40;99.90;;;;;;6304957;22;20391;-74
2023/12/11 04:17:22;;;;;;;39.45;7.05;;;9.40;99.90;;;;;;6277318;22;20019;-73
2023/12/11 04:19:47;;;;;;;28.55;5.43;;;9.40;99.90;;;;;;6304415;22;20019;-72
2023/12/11 04:22:13;;;;;;;32.38;4.63;;;9.40;99.90;;;;;;6276929;22;20025;-72
2023/12/11 04:24:39;;;;;;;28.45;4.93;;;9.40;99.90;;;;;;6304452;22;20328;-70
2023/12/11 04:27:04;;;;;;;29.83;4.85;;;9.40;99.90;;;;;;6277305;22;20033;-71
2023/12/11 04:29:30;;;;;;;30.70;4.90;;;9.50;99.90;;;;;;6304220;22;20034;-71
2023/12/11 04:31:56;;;;;;;28.00;4.28;;;9.50;99.90;;;;;;6303667;22;20023;-70
2023/12/11 04:34:21;;;;;;;21.75;4.35;;;9.50;99.90;;;;;;6276278;22;20105;-70
2023/12/11 04:36:47;;;;;;;41.28;5.68;;;9.50;99.90;;;;;;6276684;22;20023;-70
2023/12/11 04:39:13;;;;;;;38.35;5.13;;;9.50;99.90;;;;;;6304003;22;20026;-69
2023/12/11 04:41:39;;;;;;;29.27;5.05;;;9.50;99.90;;;;;;6304194;22;20019;-69
2023/12/11 04:44:04;;;;;;;37.60;7.13;;;9.50;99.90;;;;;;6276119;22;20350;-69
2023/12/11 04:46:30;;;;;;;40.58;5.65;;;9.50;99.90;;;;;;6303852;22;20104;-70
2023/12/11 04:48:56;;;;;;;39.25;5.70;;;9.50;99.90;;;;;;6303562;22;20027;-69
2023/12/11 04:51:22;;;;;;;31.55;5.40;;;9.50;99.90;;;;;;6275954;22;20027;-69
2023/12/11 04:53:47;;;;;;;32.20;5.05;;;9.50;99.90;;;;;;6276031;22;20027;-69
2023/12/11 04:56:13;;;;;;;31.73;4.82;;;9.50;99.90;;;;;;6275587;22;20046;-69
2023/12/11 04:58:39;;;;;;;31.55;5.97;;;9.50;99.90;;;;;;6303071;22;20011;-69
2023/12/11 05:01:05;;;;;;;33.60;6.07;;;9.50;99.90;;;;;;6303197;22;20101;-68
2023/12/11 05:03:31;;;;;;;36.85;5.07;;;9.50;99.90;;;;;;6275351;22;20019;-68
2023/12/11 05:05:56;;;;;;;38.50;5.20;;;9.50;99.90;;;;;;6303385;22;20019;-68
2023/12/11 05:08:22;;;;;;;28.10;5.63;;;9.50;99.90;;;;;;6275648;22;20102;-68
2023/12/11 05:10:48;;;;;;;32.80;4.88;;;9.50;99.90;;;;;;6303013;22;20030;-68
2023/12/11 05:13:14;;;;;;;39.90;4.97;;;9.50;99.90;;;;;;6302942;22;20030;-68
2023/12/11 05:15:39;;;;;;;29.15;4.97;;;9.50;99.90;;;;;;6303420;22;20373;-68
2023/12/11 05:18:05;;;;;;;28.48;5.55;;;9.40;99.90;;;;;;6275122;22;20521;-68
2023/12/11 05:20:31;;;;;;;31.13;4.68;;;9.40;99.90;;;;;;6303322;22;20019;-68
2023/12/11 05:22:56;;;;;;;35.20;4.88;;;9.40;99.90;;;;;;6302806;22;20451;-68
2023/12/11 05:25:23;;;;;;;29.77;4.93;;;9.40;99.90;;;;;;6275440;22;20020;-68
2023/12/11 05:27:48;;;;;;;34.03;5.75;;;9.40;99.90;;;;;;6303119;22;20015;-68
2023/12/11 05:30:14;;;;;;;35.33;5.88;;;9.50;99.90;;;;;;6275385;22;20320;-68
2023/12/11 05:32:41;;;;;;;35.60;5.65;;;9.40;99.90;;;;;;6302771;22;20026;-68
2023/12/11 05:35:07;;;;;;;35.03;5.38;;;9.50;99.90;;;;;;6275224;22;20019;-68
2023/12/11 05:37:32;;;;;;;40.58;6.22;;;9.50;99.90;;;;;;6303014;22;20015;-68
2023/12/11 05:39:58;;;;;;;30.40;5.15;;;9.50;99.90;;;;;;6302837;22;20325;-68
2023/12/11 05:42:24;;;;;;;29.10;5.32;;;9.50;99.90;;;;;;6302872;22;20058;-68
2023/12/11 05:44:49;;;;;;;32.08;5.72;;;9.50;99.90;;;;;;6303019;22;20019;-68
2023/12/11 05:47:15;;;;;;;31.23;5.88;;;9.50;99.90;;;;;;6302941;22;20015;-68
2023/12/11 05:49:42;;;;;;;32.95;4.75;;;9.40;99.90;;;;;;6303299;22;20157;-68
2023/12/11 05:52:08;;;;;;;34.78;6.72;;;9.40;99.90;;;;;;6302935;22;20020;-68
2023/12/11 05:54:33;;;;;;;36.95;5.68;;;9.40;99.90;;;;;;6303119;22;20015;-68
2023/12/11 05:56:59;;;;;;;30.02;4.60;;;9.40;99.90;;;;;;6302774;22;20026;-68
2023/12/11 05:59:25;;;;;;;36.28;5.35;;;9.40;99.90;;;;;;6302600;22;20018;-68
2023/12/11 06:01:50;;;;;;;29.50;4.88;;;9.40;99.90;;;;;;6275106;22;20098;-68
2023/12/11 06:04:16;;;;;;;26.00;4.70;;;9.40;99.90;;;;;;6303122;22;20023;-68
2023/12/11 06:06:42;;;;;;;24.10;4.32;;;9.40;99.90;;;;;;6303063;22;20055;-68
2023/12/11 06:09:07;;;;;;;20.98;3.70;;;9.40;99.90;;;;;;6275170;22;20065;-68
2023/12/11 06:11:33;;;;;;;18.88;4.60;;;9.40;99.90;;;;;;6302416;22;20019;-68
2023/12/11 06:13:59;;;;;;;14.55;3.88;;;9.40;99.90;;;;;;6302534;22;20516;-68
2023/12/11 06:16:24;;;;;;;15.60;2.97;;;9.40;99.90;;;;;;6302573;22;20018;-68
2023/12/11 06:18:50;;;;;;;17.88;3.88;;;9.40;99.90;;;;;;6302314;22;20324;-68
2023/12/11 06:21:23;;;;;;;23.00;4.43;;;9.40;99.90;;;;;;6302312;22;20019;-68
2023/12/11 06:23:49;;;;;;;27.20;4.47;;;9.40;99.90;;;;;;6302763;22;20054;-68
2023/12/11 06:26:31;;;;;;;28.42;4.93;;;9.50;99.90;;;;;;6302671;22;20340;-68
2023/12/11 06:28:59;;;;;;;32.60;4.95;;;9.50;99.90;;;;;;6302049;22;20381;-68
2023/12/11 06:31:25;;;;;;;30.35;5.78;;;9.50;99.90;;;;;;6302047;22;20056;-67
2023/12/11 06:33:51;;;;;;;31.83;4.45;;;9.50;99.90;;;;;;6302493;22;20015;-69
2023/12/11 06:36:17;;;;;;;31.20;5.57;;;9.50;99.90;;;;;;6302325;22;20392;-67
2023/12/11 06:38:43;;;;;;;27.67;3.92;;;9.50;99.90;;;;;;6303404;22;20008;-69
2023/12/11 06:41:08;;;;;;;31.58;5.63;;;9.50;99.90;;;;;;6275357;22;20017;-67
2023/12/11 06:43:35;;;;;;;26.55;4.88;;;9.50;99.90;;;;;;6302376;22;20027;-68
2023/12/11 06:46:02;;;;;;;26.45;5.22;;;9.50;99.90;;;;;;6302229;22;20015;-67
2023/12/11 06:48:29;;;;;;;24.67;4.88;;;9.50;99.90;;;;;;6274777;22;20530;-67
2023/12/11 06:50:55;;;;;;;31.45;4.53;;;9.50;99.90;;;;;;6302252;22;20030;-68
2023/12/11 06:53:20;;;;;;;29.73;4.55;;;9.50;99.90;;;;;;6302794;22;20023;-67
2023/12/11 06:55:46;;;;;;;32.88;5.13;;;9.50;99.90;;;;;;6302430;22;20072;-67
2023/12/11 06:58:12;;;;;;;30.77;5.00;;;9.50;99.90;;;;;;6301727;22;20455;-67
2023/12/11 07:00:38;;;;;;;25.52;4.68;;;9.50;99.90;;;;;;6302347;22;20017;-67
2023/12/11 07:03:04;;;;;;;33.55;5.07;;;9.50;99.90;;;;;;6301727;22;20389;-67
2023/12/11 07:05:29;;;;;;;48.60;7.45;;;9.50;99.90;;;;;;6301900;22;20023;-67
2023/12/11 07:07:55;;;;;;;20.63;4.45;;;9.50;99.90;;;;;;6302325;22;20026;-67
2023/12/11 07:10:21;;;;;;;31.50;6.13;;;9.50;99.90;;;;;;6302070;22;20397;-67
2023/12/11 07:12:47;;;;;;;28.90;5.30;;;9.50;99.90;;;;;;6302051;22;20019;-69
2023/12/11 07:15:13;;;;;;;35.50;7.70;;;9.40;99.90;;;;;;6301956;22;20011;-68
2023/12/11 07:17:38;;;;;;;26.70;4.15;;;9.40;99.90;;;;;;6302325;22;20022;-68
2023/12/11 07:20:07;;;;;;;32.85;6.43;;;9.40;99.90;;;;;;6302353;22;20016;-68
2023/12/11 07:22:34;;;;;;;25.17;4.18;;;9.40;99.90;;;;;;6302506;22;20119;-68
2023/12/11 07:25:00;;;;;;;24.92;4.60;;;9.50;99.90;;;;;;6301776;22;20080;-67
2023/12/11 07:27:26;;;;;;;27.77;4.90;;;9.40;99.90;;;;;;6302344;22;20458;-68
2023/12/11 07:29:52;;;;;;;22.15;4.70;;;9.40;99.90;;;;;;6301324;22;20062;-68
2023/12/11 07:32:18;;;;;;;26.98;4.93;;;9.40;99.90;;;;;;6302133;22;20015;-69
2023/12/11 07:34:44;;;;;;;26.45;4.43;;;9.40;99.90;;;;;;6301859;22;20019;-68
2023/12/11 07:37:10;;;;;;;26.92;4.85;;;9.40;99.90;;;;;;6302304;22;20015;-68
2023/12/11 07:39:36;;;;;;;32.03;4.40;;;9.40;99.90;;;;;;6302110;22;20027;-69
2023/12/11 07:42:01;;;;;;;26.08;4.32;;;9.30;99.90;;;;;;6302484;22;20019;-69
2023/12/11 07:44:27;;;;;;;25.08;4.75;;;9.30;99.90;;;;;;6302321;22;20027;-69
2023/12/11 07:46:53;;;;;;;28.25;5.35;;;9.30;99.90;;;;;;6274876;22;20110;-70
2023/12/11 07:49:18;;;;;;;26.67;4.75;;;9.30;99.90;;;;;;6302719;22;20016;-69
2023/12/11 07:51:44;;;;;;;26.65;4.65;;;9.30;99.90;;;;;;6302008;22;20093;-69
2023/12/11 07:54:11;;;;;;;23.83;3.80;;;9.30;99.90;;;;;;6302179;22;20077;-69
2023/12/11 07:56:37;;;;;;;23.23;5.45;;;9.20;99.90;;;;;;6274979;22;20118;-70
2023/12/11 07:59:03;;;;;;;27.85;5.00;;;9.20;99.90;;;;;;6274453;22;20023;-70
2023/12/11 08:01:32;;;;;;;28.73;4.68;;;9.20;99.90;;;;;;6302329;22;20015;-71
2023/12/11 08:03:58;;;;;;;28.33;4.10;;;9.20;99.90;;;;;;6302752;22;20047;-71
2023/12/11 08:06:24;;;;;;;18.70;3.63;;;9.20;99.90;;;;;;6302552;22;20015;-72
2023/12/11 08:08:49;;;;;;;20.50;4.35;;;9.20;99.90;;;;;;6274647;22;20015;-73
2023/12/11 08:11:25;;;;;;;19.08;3.47;;;9.20;99.90;;;;;;6274982;22;20019;-76
2023/12/11 08:13:51;;;;;;;15.77;3.80;;;9.20;99.90;;;;;;6274872;22;20019;-76
2023/12/11 08:16:17;;;;;;;15.35;3.90;;;9.30;99.90;;;;;;6275109;22;20023;-76
2023/12/11 08:18:44;;;;;;;15.60;4.25;;;9.20;99.90;;;;;;6302724;22;20019;-73
2023/12/11 08:21:10;;;;;;;12.30;4.07;;;9.20;99.90;;;;;;6302709;22;20068;-74
2023/12/11 08:23:39;;;;;;;12.48;2.95;;;9.20;99.90;;;;;;6302963;22;20019;-72
2023/12/11 08:26:05;;;;;;;10.23;2.30;;;9.20;99.90;;;;;;6302658;22;20022;-72
2023/12/11 08:28:31;;;;;;;11.65;3.00;;;9.20;99.90;;;;;;6302588;22;20127;-71
2023/12/11 08:30:56;;;;;;;10.73;2.80;;;9.30;99.90;;;;;;6302910;22;20047;-72
2023/12/11 08:33:22;;;;;;;12.82;2.65;;;9.30;99.90;;;;;;6304299;22;20016;-71
2023/12/11 08:35:48;;;;;;;18.13;3.05;;;9.30;99.90;;;;;;6304452;22;20015;-69
2023/12/11 08:38:15;;;;;;;9.02;2.47;;;9.40;99.90;;;;;;6304140;22;20082;-68
2023/12/11 08:40:42;;;;;;;11.07;3.85;;;9.30;99.90;;;;;;6304318;22;20090;-68
2023/12/11 08:43:08;;;;;;;6.97;2.70;;;9.40;99.90;;;;;;6304235;22;20022;-68
2023/12/11 08:45:34;;;;;;;9.15;2.45;;;9.30;99.90;;;;;;6304268;22;20017;-68
2023/12/11 08:48:00;;;;;;;7.25;2.00;;;9.30;99.90;;;;;;6276391;22;20019;-68
2023/12/11 08:50:25;;;;;;;10.75;2.00;;;9.30;99.90;;;;;;6305172;22;20698;-67
2023/12/11 08:52:51;;;;;;;9.90;2.13;;;9.30;99.90;;;;;;6304687;22;20023;-68
2023/12/11 08:55:17;;;;;;;7.50;2.03;;;9.30;99.90;;;;;;6304485;22;20015;-67
2023/12/11 08:57:44;;;;;;;4.32;1.48;;;9.30;99.90;;;;;;6304808;22;20461;-69
2023/12/11 09:00:11;;;;;;;6.82;1.70;;;9.30;99.90;;;;;;6305055;22;20019;-68
2023/12/11 09:02:36;;;;;;;9.10;1.67;;;9.30;99.90;;;;;;6277275;22;20678;-67
2023/12/11 09:05:03;;;;;;;5.57;1.73;;;9.30;99.90;;;;;;6304715;22;20011;-68
2023/12/11 09:07:29;;;;;;;46.33;5.32;;;9.40;99.90;;;;;;6305152;22;20008;-68
2023/12/11 10:14:31;;;;;;;18.00;2.65;;;9.60;99.90;;;;;;6176567;22;1305477;-70
2023/12/11 10:16:57;;;;;;;15.90;2.63;;;9.70;99.90;;;;;;6219308;23;20028;-71
2023/12/11 10:19:31;;;;;;;22.35;3.83;;;9.70;99.90;;;;;;6218669;23;20099;-71
2023/12/11 10:21:57;;;;;;;13.05;2.78;;;9.70;99.90;;;;;;6216089;23;20056;-71
2023/12/11 10:24:23;;;;;;;13.70;2.60;;;9.70;99.90;;;;;;6214753;23;20085;-71
2023/12/11 10:26:55;;;;;;;16.52;2.97;;;9.70;99.90;;;;;;6212289;23;20021;-73
2023/12/11 10:29:30;;;;;;;15.50;3.20;;;9.70;99.90;;;;;;6208477;23;20024;-72
2023/12/11 10:32:03;;;;;;;11.27;2.58;;;9.70;99.90;;;;;;6209790;23;20773;-69
2023/12/11 10:50:27;;;;;;;16.88;3.42;;;10.10;99.90;;;;;;6295116;22;1373276;-84
2023/12/11 10:52:53;;;;;;;21.80;3.60;;;10.00;99.90;;;;;;6297526;22;20015;-83
2023/12/11 10:55:19;;;;;;;10.85;2.25;;;10.10;99.90;;;;;;6296964;22;20022;-83
2023/12/11 10:57:46;;;;;;;16.73;2.72;;;10.00;99.90;;;;;;6298727;22;20025;-84
2023/12/11 11:00:14;;;;;;;12.05;3.15;;;10.00;99.90;;;;;;6296001;22;20018;-84
2023/12/11 11:02:46;;;;;;;13.70;2.95;;;10.00;99.90;;;;;;6325143;22;20050;-85
2023/12/11 11:05:13;;;;;;;16.13;3.45;;;9.90;99.90;;;;;;6295943;22;20028;-85
2023/12/11 11:07:54;;;;;;;18.42;2.72;;;9.90;99.90;;;;;;6298446;22;20058;-86
2023/12/11 11:10:23;;;;;;;12.70;3.25;;;9.90;99.90;;;;;;6298766;22;20019;-86
2023/12/11 11:13:07;;;;;;;14.70;2.35;;;9.90;99.90;;;;;;6296174;22;20051;-85
2023/12/11 11:15:33;;;;;;;16.20;4.18;;;9.90;99.90;;;;;;6299103;22;20021;-87
2023/12/11 11:18:00;;;;;;;15.13;3.25;;;9.90;99.90;;;;;;6295561;22;20049;-89
2023/12/11 11:21:07;;;;;;;13.60;2.28;;;9.80;99.90;;;;;;6298075;22;20025;-89
2023/12/11 11:23:43;;;;;;;14.13;2.20;;;9.90;99.90;;;;;;6324376;22;20048;-85
2023/12/11 11:26:34;;;;;;;7.40;2.35;;;9.90;99.90;;;;;;6295372;22;20011;-83
2023/12/11 11:29:01;;;;;;;14.93;2.65;;;9.90;99.90;;;;;;6298175;22;20027;-87
2023/12/11 11:32:00;;;;;;;10.88;2.20;;;9.80;99.90;;;;;;6296911;22;20125;-86
2023/12/11 11:34:41;;;;;;;12.32;2.28;;;9.90;99.90;;;;;;6228182;22;20049;-86
2023/12/11 11:37:14;;;;;;;13.90;2.83;;;9.90;99.90;;;;;;6299415;22;20027;-92
2023/12/11 11:39:59;;;;;;;13.02;2.72;;;9.90;99.90;;;;;;6296065;22;20030;-90
2023/12/11 11:42:27;;;;;;;9.18;2.67;;;9.90;99.90;;;;;;6296996;22;20026;-89
2023/12/11 11:45:11;;;;;;;13.02;3.15;;;9.80;99.90;;;;;;6296674;22;20314;-89
2023/12/11 11:47:37;;;;;;;14.85;3.28;;;9.80;99.90;;;;;;6288812;22;20029;-88
2023/12/11 11:50:09;;;;;;;16.10;3.25;;;9.80;99.90;;;;;;6292346;22;20501;-89
2023/12/11 11:52:38;;;;;;;14.32;3.58;;;9.80;99.90;;;;;;6290245;22;20412;-90
2023/12/11 11:55:16;;;;;;;24.95;4.70;;;9.80;99.90;;;;;;6292640;22;20019;-90
2023/12/11 11:57:43;;;;;;;14.57;3.63;;;9.80;99.90;;;;;;6292129;22;20042;-89
2023/12/11 12:00:09;;;;;;;17.73;4.20;;;9.80;99.90;;;;;;6288993;22;20018;-89
2023/12/11 12:02:35;;;;;;;19.15;3.92;;;9.80;99.90;;;;;;6292481;22;20066;-88
2023/12/11 12:05:08;;;;;;;18.90;3.90;;;9.70;99.90;;;;;;6289070;22;20029;-92
2023/12/11 12:07:41;;;;;;;15.80;3.67;;;9.70;99.90;;;;;;6294075;22;20029;-88
2023/12/11 12:10:10;;;;;;;21.88;3.97;;;9.80;99.90;;;;;;6291093;22;20023;-88
2023/12/11 12:12:36;;;;;;;22.98;4.00;;;9.80;99.90;;;;;;6290283;22;20026;-89
2023/12/11 12:15:12;;;;;;;18.67;3.42;;;9.80;99.90;;;;;;6292537;22;20022;-89
2023/12/11 12:17:38;;;;;;;22.98;4.10;;;9.70;99.90;;;;;;6288746;22;20332;-89
2023/12/11 12:20:18;;;;;;;15.60;4.28;;;9.70;99.90;;;;;;6292846;22;20015;-89
2023/12/11 12:23:00;;;;;;;16.17;3.00;;;9.70;99.90;;;;;;6289803;22;20023;-90
2023/12/11 12:25:26;;;;;;;19.05;3.35;;;9.70;99.90;;;;;;6290590;22;20075;-89
2023/12/11 12:27:55;;;;;;;12.80;2.90;;;9.70;99.90;;;;;;6292492;22;20100;-90
2023/12/11 12:30:22;;;;;;;14.93;3.33;;;9.70;99.90;;;;;;6289744;22;20018;-89
2023/12/11 12:32:50;;;;;;;12.05;2.72;;;9.70;99.90;;;;;;6292072;22;20536;-91
2023/12/11 12:35:21;;;;;;;16.35;2.63;;;9.70;99.90;;;;;;6288966;22;20092;-89
2023/12/11 12:37:49;;;;;;;12.85;3.72;;;9.60;99.90;;;;;;6292619;22;20060;-89
2023/12/11 12:40:18;;;;;;;13.82;2.20;;;9.60;99.90;;;;;;6290628;22;20336;-88
2023/12/11 12:42:44;;;;;;;10.85;2.08;;;9.60;99.90;;;;;;6289374;22;20030;-92
2023/12/11 12:45:11;;;;;;;8.75;2.50;;;9.60;99.90;;;;;;6292646;22;20023;-89
2023/12/11 12:47:47;;;;;;;16.83;2.90;;;9.60;99.90;;;;;;6288991;22;20063;-93
2023/12/11 12:50:27;;;;;;;9.25;2.22;;;9.60;99.90;;;;;;6318605;22;20023;-90
2023/12/11 12:53:07;;;;;;;8.98;2.03;;;9.60;99.90;;;;;;6316318;22;20110;-88
2023/12/11 12:55:34;;;;;;;13.13;1.95;;;9.50;99.90;;;;;;6316007;22;20038;-88
2023/12/11 12:58:00;;;;;;;13.60;2.03;;;9.50;99.90;;;;;;6291582;22;20031;-91
2023/12/11 13:00:26;;;;;;;6.65;1.80;;;9.60;99.90;;;;;;6289623;22;20062;-89
2023/12/11 13:02:52;;;;;;;9.38;2.10;;;9.50;99.90;;;;;;6292723;22;20693;-90
2023/12/11 13:05:18;;;;;;;7.32;2.42;;;9.50;99.90;;;;;;6315257;22;20045;-91
2023/12/11 13:07:58;;;;;;;12.38;2.00;;;9.50;99.90;;;;;;6292773;22;20046;-88
2023/12/11 13:10:24;;;;;;;6.10;1.60;;;9.50;99.90;;;;;;6291607;22;20455;-89
2023/12/11 13:12:50;;;;;;;5.72;1.70;;;9.50;99.90;;;;;;6289782;22;20026;-87
2023/12/11 13:15:16;;;;;;;13.60;1.73;;;9.50;99.90;;;;;;6316489;22;20062;-88
2023/12/11 13:17:50;;;;;;;6.68;1.70;;;9.40;99.90;;;;;;6288648;22;20027;-85
2023/12/11 13:20:16;;;;;;;4.97;1.80;;;9.40;99.90;;;;;;6316305;22;20019;-84
2023/12/11 13:22:42;;;;;;;6.43;1.55;;;9.40;99.90;;;;;;6314110;22;20025;-89
2023/12/11 13:25:08;;;;;;;5.07;2.35;;;9.40;99.90;;;;;;6290706;22;20082;-88
2023/12/11 13:27:36;;;;;;;8.30;1.77;;;9.40;99.90;;;;;;6315505;22;20389;-88
2023/12/11 13:30:03;;;;;;;2.75;1.50;;;9.40;99.90;;;;;;6288091;22;20019;-88
2023/12/11 13:32:29;;;;;;;4.00;1.63;;;9.40;99.90;;;;;;6290906;22;20464;-88
2023/12/11 13:34:55;;;;;;;8.05;1.40;;;9.40;99.90;;;;;;6313530;22;20067;-89
2023/12/11 13:37:21;;;;;;;3.45;1.50;;;9.30;99.90;;;;;;6290741;22;20019;-88
2023/12/11 13:39:47;;;;;;;7.35;2.20;;;9.40;99.90;;;;;;6288417;22;20023;-89
2023/12/11 13:42:12;;;;;;;7.10;1.80;;;9.30;99.90;;;;;;6290356;22;20019;-89
2023/12/11 13:44:38;;;;;;;11.23;1.98;;;9.30;99.90;;;;;;6315982;22;20019;-88
2023/12/11 13:47:04;;;;;;;6.40;1.45;;;9.30;99.90;;;;;;6288388;22;20078;-88
2023/12/11 13:49:32;;;;;;;5.47;1.50;;;9.30;99.90;;;;;;6290615;22;20019;-89
2023/12/11 13:51:58;;;;;;;6.18;1.58;;;9.30;99.90;;;;;;6286518;22;20041;-88
2023/12/11 13:54:23;;;;;;;2.83;1.17;;;9.30;99.90;;;;;;6290531;22;20014;-88
2023/12/11 13:56:49;;;;;;;7.88;2.30;;;9.30;99.90;;;;;;6286190;22;20018;-88
2023/12/11 13:59:15;;;;;;;6.68;1.63;;;9.20;99.90;;;;;;6290413;22;20045;-90
2023/12/11 14:01:41;;;;;;;8.10;2.00;;;9.20;99.90;;;;;;6316391;22;20034;-90
2023/12/11 14:04:07;;;;;;;6.40;1.50;;;9.30;99.90;;;;;;6289501;22;20054;-92
2023/12/11 14:06:33;;;;;;;9.00;1.50;;;9.30;99.90;;;;;;6292684;22;20413;-93
2023/12/11 14:08:58;;;;;;;6.65;1.42;;;9.30;99.90;;;;;;6289650;22;20045;-89